Dream Diva — 3EKW6 — position and weather

sailwx.info

Track history (hours):
 
Tides and Currents Weather Stations Pressure Air Temp Water Temp Dewpoint Dewpoint Depression Visibility Wind Speed Wind Dir Waves Ship Positions

Dream Diva

Last reported at 2014-Aug-17 12:24 UTC. Time now 2014-Aug-21 14:08 UTC.
Position N 34°17' W 127°51'.

Length 186 m; draft 7.4 m.

Type: Cargo ship. MMSI: 372856000.

Date/timePositionNaut miles runAvg speedWind from/ knotsBaromVisibWave heightAir tempDewpointWater temp
2014-Aug-17 12:24N 34°17' W 127°51'1517.7
2014-Aug-17 11:33N 34°08' W 127°36'2117.7
2014-Aug-17 10:21N 33°56' W 127°15'5117.9
2014-Aug-17 07:29N 33°25' W 126°25'1817.7
2014-Aug-17 06:27N 33°15' W 126°08'1618.0
2014-Aug-17 05:33N 33°06' W 125°51'1818.1
2014-Aug-17 04:32N 32°54' W 125°34'2217.8
2014-Aug-17 03:18N 32°41' W 125°13'1317.4
2014-Aug-17 02:33N 32°34' W 125°01'3717.6
2014-Aug-17 00:28N 32°13' W 124°25'3317.1
2014-Aug-16 22:33N 32°08' W 123°47'1717.2
2014-Aug-16 21:33N 32°08' W 123°26'1817.4
2014-Aug-16 20:33N 32°07' W 123°06'1717.5
2014-Aug-16 19:33N 32°06' W 122°45'1716.8
2014-Aug-16 18:33N 32°06' W 122°26'1716.6
2014-Aug-16 17:33N 32°06' W 122°06'1716.6
2014-Aug-16 16:33N 32°06' W 121°46'1817.2
2014-Aug-16 15:31N 32°08' W 121°25'1616.3
2014-Aug-16 14:33N 32°09' W 121°07'1616.2
2014-Aug-16 13:33N 32°10' W 120°48'1616.1
2014-Aug-16 12:33N 32°11' W 120°29'1615.9
2014-Aug-16 11:33N 32°13' W 120°10'1616.1
2014-Aug-16 10:33N 32°14' W 119°51'1616.5
2014-Aug-16 09:33N 32°16' W 119°32'1716.7
2014-Aug-16 08:33N 32°17' W 119°12'1616.5
2014-Aug-16 07:33N 32°18' W 118°53'1616.1
2014-Aug-16 06:33N 32°20' W 118°34'1616.4
2014-Aug-16 05:33N 32°21' W 118°14'1716.5
2014-Aug-16 04:33N 32°25' W 117°55'1616.2
2014-Aug-16 03:33N 32°28' W 117°36'1212.1
2014-Aug-16 02:33N 32°34' W 117°24'1010.3
2014-Aug-16 01:33N 32°39' W 117°14'5 4.9
2014-Aug-16 00:32N 32°41' W 117°08'1 0.6
2014-Aug-15 22:12N 32°39' W 117°07'0 0.0
2014-Aug-15 21:24N 32°39' W 117°07'0 0.0
2014-Aug-15 20:30N 32°39' W 117°07'0 0.0
2014-Aug-15 17:03N 32°39' W 117°07'0 0.0
2014-Aug-15 16:30N 32°39' W 117°07'0 0.0
2014-Aug-15 15:33N 32°39' W 117°07'0 0.0
2014-Aug-15 14:15N 32°39' W 117°07'0 0.4
2014-Aug-15 13:33N 32°39' W 117°07'6 5.8
2014-Aug-15 12:33N 32°41' W 117°14'7 7.1
2014-Aug-15 11:33N 32°36' W 117°20'10 9.8
2014-Aug-15 10:33N 32°36' W 117°31'1313.1
2014-Aug-15 09:33N 32°38' W 117°47'1615.6
2014-Aug-15 08:33N 32°49' W 118°00'1615.5
2014-Aug-15 07:33N 33°00' W 118°13'1615.6
2014-Aug-15 06:33N 33°12' W 118°26'1615.5
2014-Aug-15 05:33N 33°22' W 118°39'1615.8
2014-Aug-15 04:33N 33°35' W 118°51'1615.7
2014-Aug-15 03:33N 33°47' W 119°02'1313.3
2014-Aug-15 02:33N 33°58' W 119°11'1010.3
2014-Aug-15 01:33N 34°09' W 119°13'1 0.5
2014-Aug-15 00:15N 34°09' W 119°12'0 0.1
2014-Aug-14 23:27N 34°09' W 119°12'0 0.0
2014-Aug-14 16:27N 34°09' W 119°12'0 0.0
2014-Aug-14 12:33N 34°09' W 119°12'5 5.0
2014-Aug-14 11:30N 34°04' W 119°15'7 7.4
2014-Aug-14 10:32N 33°57' W 119°13'1010.4
2014-Aug-14 09:33N 33°51' W 119°23'1211.7
2014-Aug-14 08:33N 33°48' W 119°37'1211.5
2014-Aug-14 07:33N 33°45' W 119°50'1111.2
2014-Aug-14 06:33N 33°42' W 120°03'1514.6
2014-Aug-14 05:31N 33°38' W 120°21'1414.5
2014-Aug-14 04:33N 33°35' W 120°37'1514.5
2014-Aug-14 03:31N 33°31' W 120°54'1815.0
2014-Aug-14 02:19N 33°30' W 121°16'6215.4
2014-Aug-13 22:18N 33°38' W 122°30'6516.2
2014-Aug-13 18:19N 33°44' W 123°47'  
Track history (hours):
 
Tides and Currents Weather Stations Pressure Air Temp Water Temp Dewpoint Dewpoint Depression Visibility Wind Speed Wind Dir Waves Ship Positions

Dream Diva

Last reported at 2014-Aug-17 12:24 UTC. Time now 2014-Aug-21 14:08 UTC.
Position N 34°17' W 127°51'.

Length 186 m; draft 7.4 m.

Type: Cargo ship. MMSI: 372856000.

Date/timePositionNaut miles runAvg speedWind from/ knotsBaromVisibWave heightAir tempDewpointWater temp
2014-Aug-17 12:24N 34°17' W 127°51'1517.7
2014-Aug-17 11:33N 34°08' W 127°36'2117.7
2014-Aug-17 10:21N 33°56' W 127°15'5117.9
2014-Aug-17 07:29N 33°25' W 126°25'1817.7
2014-Aug-17 06:27N 33°15' W 126°08'1618.0
2014-Aug-17 05:33N 33°06' W 125°51'1818.1
2014-Aug-17 04:32N 32°54' W 125°34'2217.8
2014-Aug-17 03:18N 32°41' W 125°13'1317.4
2014-Aug-17 02:33N 32°34' W 125°01'3717.6
2014-Aug-17 00:28N 32°13' W 124°25'3317.1
2014-Aug-16 22:33N 32°08' W 123°47'1717.2
2014-Aug-16 21:33N 32°08' W 123°26'1817.4
2014-Aug-16 20:33N 32°07' W 123°06'1717.5
2014-Aug-16 19:33N 32°06' W 122°45'1716.8
2014-Aug-16 18:33N 32°06' W 122°26'1716.6
2014-Aug-16 17:33N 32°06' W 122°06'1716.6
2014-Aug-16 16:33N 32°06' W 121°46'1817.2
2014-Aug-16 15:31N 32°08' W 121°25'1616.3
2014-Aug-16 14:33N 32°09' W 121°07'1616.2
2014-Aug-16 13:33N 32°10' W 120°48'1616.1
2014-Aug-16 12:33N 32°11' W 120°29'1615.9
2014-Aug-16 11:33N 32°13' W 120°10'1616.1
2014-Aug-16 10:33N 32°14' W 119°51'1616.5
2014-Aug-16 09:33N 32°16' W 119°32'1716.7
2014-Aug-16 08:33N 32°17' W 119°12'1616.5
2014-Aug-16 07:33N 32°18' W 118°53'1616.1
2014-Aug-16 06:33N 32°20' W 118°34'1616.4
2014-Aug-16 05:33N 32°21' W 118°14'1716.5
2014-Aug-16 04:33N 32°25' W 117°55'1616.2
2014-Aug-16 03:33N 32°28' W 117°36'1212.1
2014-Aug-16 02:33N 32°34' W 117°24'1010.3
2014-Aug-16 01:33N 32°39' W 117°14'5 4.9
2014-Aug-16 00:32N 32°41' W 117°08'1 0.6
2014-Aug-15 22:12N 32°39' W 117°07'0 0.0
2014-Aug-15 21:24N 32°39' W 117°07'0 0.0
2014-Aug-15 20:30N 32°39' W 117°07'0 0.0
2014-Aug-15 17:03N 32°39' W 117°07'0 0.0
2014-Aug-15 16:30N 32°39' W 117°07'0 0.0
2014-Aug-15 15:33N 32°39' W 117°07'0 0.0
2014-Aug-15 14:15N 32°39' W 117°07'0 0.4
2014-Aug-15 13:33N 32°39' W 117°07'6 5.8
2014-Aug-15 12:33N 32°41' W 117°14'7 7.1
2014-Aug-15 11:33N 32°36' W 117°20'10 9.8
2014-Aug-15 10:33N 32°36' W 117°31'1313.1
2014-Aug-15 09:33N 32°38' W 117°47'1615.6
2014-Aug-15 08:33N 32°49' W 118°00'1615.5
2014-Aug-15 07:33N 33°00' W 118°13'1615.6
2014-Aug-15 06:33N 33°12' W 118°26'1615.5
2014-Aug-15 05:33N 33°22' W 118°39'1615.8
2014-Aug-15 04:33N 33°35' W 118°51'1615.7
2014-Aug-15 03:33N 33°47' W 119°02'1313.3
2014-Aug-15 02:33N 33°58' W 119°11'1010.3
2014-Aug-15 01:33N 34°09' W 119°13'1 0.5
2014-Aug-15 00:15N 34°09' W 119°12'0 0.1
2014-Aug-14 23:27N 34°09' W 119°12'0 0.0
2014-Aug-14 16:27N 34°09' W 119°12'0 0.0
2014-Aug-14 12:33N 34°09' W 119°12'5 5.0
2014-Aug-14 11:30N 34°04' W 119°15'7 7.4
2014-Aug-14 10:32N 33°57' W 119°13'1010.4
2014-Aug-14 09:33N 33°51' W 119°23'1211.7
2014-Aug-14 08:33N 33°48' W 119°37'1211.5
2014-Aug-14 07:33N 33°45' W 119°50'1111.2
2014-Aug-14 06:33N 33°42' W 120°03'1514.6
2014-Aug-14 05:31N 33°38' W 120°21'1414.5
2014-Aug-14 04:33N 33°35' W 120°37'1514.5
2014-Aug-14 03:31N 33°31' W 120°54'1815.0
2014-Aug-14 02:19N 33°30' W 121°16'6215.4
2014-Aug-13 22:18N 33°38' W 122°30'6516.2
2014-Aug-13 18:19N 33°44' W 123°47'  

Dump ship's entire track history